createdAt,value
2023-02-09T00:02:19.530Z,49.60
2023-02-09T00:04:56.797Z,49.56
2023-02-09T00:07:25.098Z,49.31
2023-02-09T00:09:54.609Z,49.77
2023-02-09T00:12:40.005Z,49.87
2023-02-09T00:15:09.643Z,49.35
2023-02-09T00:17:38.857Z,49.33
2023-02-09T00:20:10.331Z,49.61
2023-02-09T00:22:38.387Z,49.32
2023-02-09T00:25:07.331Z,49.78
2023-02-09T00:27:36.788Z,49.94
2023-02-09T00:30:06.307Z,49.79
2023-02-09T00:32:34.729Z,49.82
2023-02-09T00:35:02.876Z,50.02
2023-02-09T00:37:32.421Z,50.33
2023-02-09T00:40:00.621Z,50.05
2023-02-09T00:42:28.689Z,50.28
2023-02-09T00:44:56.942Z,50.14
2023-02-09T00:47:25.245Z,50.26
2023-02-09T00:49:53.358Z,50.23
2023-02-09T00:52:21.408Z,50.34
2023-02-09T00:54:50.886Z,50.46
2023-02-09T00:57:19.373Z,50.00
2023-02-09T00:59:47.479Z,50.29
2023-02-09T01:02:15.560Z,50.31
2023-02-09T01:04:44.232Z,50.39
2023-02-09T01:07:12.320Z,50.09
2023-02-09T01:09:40.381Z,50.39
2023-02-09T01:12:09.986Z,50.51
2023-02-09T01:14:39.359Z,50.76
2023-02-09T01:17:07.526Z,50.66
2023-02-09T01:19:36.095Z,50.30
2023-02-09T01:22:04.821Z,50.35
2023-02-09T01:24:33.053Z,50.48
2023-02-09T01:27:01.177Z,50.28
2023-02-09T01:29:30.899Z,50.53
2023-02-09T01:31:59.187Z,50.02
2023-02-09T01:34:27.693Z,50.26
2023-02-09T01:36:55.843Z,50.47
2023-02-09T01:39:24.299Z,50.60
2023-02-09T01:41:52.468Z,50.48
2023-02-09T01:44:57.871Z,50.71
2023-02-09T01:47:27.396Z,50.81
2023-02-09T01:49:56.870Z,50.74
2023-02-09T01:52:28.713Z,50.58
2023-02-09T01:55:01.773Z,50.54
2023-02-09T01:57:33.849Z,50.46
2023-02-09T02:00:06.635Z,50.56
2023-02-09T02:02:38.478Z,50.33
2023-02-09T02:05:09.473Z,50.33
2023-02-09T02:07:43.169Z,50.55
2023-02-09T02:10:11.463Z,50.32
2023-02-09T02:12:40.234Z,50.39
2023-02-09T02:15:09.034Z,50.48
2023-02-09T02:17:52.908Z,50.78
2023-02-09T02:20:56.231Z,50.76
2023-02-09T02:23:31.817Z,50.38
2023-02-09T02:26:26.690Z,50.78
2023-02-09T02:29:15.067Z,50.43
2023-02-09T02:32:04.287Z,50.41
2023-02-09T02:34:42.333Z,50.45
2023-02-09T02:37:20.115Z,50.78
2023-02-09T02:39:57.718Z,50.64
2023-02-09T02:42:53.120Z,50.63
2023-02-09T02:45:39.809Z,51.05
2023-02-09T02:48:19.679Z,51.10
2023-02-09T02:50:54.670Z,51.20
2023-02-09T02:53:29.456Z,51.22
2023-02-09T02:56:06.425Z,51.23
2023-02-09T02:58:37.560Z,51.30
2023-02-09T03:01:10.122Z,51.13
2023-02-09T03:03:43.088Z,51.32
2023-02-09T03:06:12.296Z,51.09
2023-02-09T03:08:53.115Z,51.41
2023-02-09T03:11:27.241Z,51.08
2023-02-09T03:14:19.953Z,51.56
2023-02-09T03:16:53.325Z,51.24
2023-02-09T03:19:36.923Z,51.36
2023-02-09T03:22:08.947Z,51.43
2023-02-09T03:24:42.333Z,51.51
2023-02-09T03:27:16.737Z,51.68
2023-02-09T03:29:47.575Z,51.82
2023-02-09T03:32:17.416Z,51.84
2023-02-09T03:34:47.419Z,51.39
2023-02-09T03:37:15.647Z,51.79
2023-02-09T03:39:43.865Z,51.90
2023-02-09T03:42:12.006Z,51.97
2023-02-09T03:44:40.098Z,52.19
2023-02-09T03:47:10.327Z,52.46
2023-02-09T03:49:40.744Z,52.54
2023-02-09T03:52:12.108Z,53.04
2023-02-09T03:54:40.644Z,53.34
2023-02-09T03:57:08.937Z,53.02
2023-02-09T03:59:37.901Z,52.92
2023-02-09T04:02:08.914Z,53.07
2023-02-09T04:04:37.838Z,53.08
2023-02-09T04:07:06.166Z,53.09
2023-02-09T04:09:37.599Z,53.34
2023-02-09T04:12:05.954Z,53.09
2023-02-09T04:14:33.911Z,53.12
2023-02-09T04:17:01.886Z,53.04
2023-02-09T04:19:29.905Z,53.14
2023-02-09T04:21:57.901Z,52.98
2023-02-09T04:24:26.165Z,53.08
2023-02-09T04:26:55.534Z,53.06
2023-02-09T04:29:23.608Z,53.03
2023-02-09T04:31:51.697Z,53.39
2023-02-09T04:34:21.410Z,53.37
2023-02-09T04:36:49.472Z,53.28
2023-02-09T04:39:18.023Z,53.34
2023-02-09T04:41:46.078Z,53.53
2023-02-09T04:44:15.690Z,53.84
2023-02-09T04:46:45.639Z,53.73
2023-02-09T04:49:13.916Z,54.00
2023-02-09T04:51:41.989Z,53.84
2023-02-09T04:54:10.203Z,54.18
2023-02-09T04:56:38.955Z,54.30
2023-02-09T04:59:24.353Z,54.12
2023-02-09T05:01:53.851Z,54.13
2023-02-09T05:04:21.904Z,54.31
2023-02-09T05:06:50.427Z,54.15
2023-02-09T05:09:18.496Z,54.31
2023-02-09T05:11:46.754Z,54.37
2023-02-09T05:14:14.800Z,54.32
2023-02-09T05:16:42.946Z,54.63
2023-02-09T05:19:12.494Z,54.34
2023-02-09T05:21:41.036Z,54.94
2023-02-09T05:24:09.117Z,54.73
2023-02-09T05:26:37.450Z,54.54
2023-02-09T05:29:05.792Z,55.10
2023-02-09T05:31:34.249Z,55.79
2023-02-09T05:34:02.363Z,55.86
2023-02-09T05:36:31.720Z,56.10
2023-02-09T05:38:59.745Z,56.15
2023-02-09T05:41:44.926Z,56.06
2023-02-09T05:44:12.933Z,56.10
2023-02-09T05:46:41.042Z,56.16
2023-02-09T05:49:09.081Z,56.29
2023-02-09T05:51:38.574Z,56.31
2023-02-09T05:54:06.729Z,56.06
2023-02-09T05:56:35.716Z,56.53
2023-02-09T05:59:04.735Z,56.45
2023-02-09T06:01:33.036Z,56.44
2023-02-09T06:04:01.075Z,56.54
2023-02-09T06:06:29.039Z,56.40
2023-02-09T06:08:58.308Z,56.59
2023-02-09T06:11:26.381Z,56.52
2023-02-09T06:13:54.409Z,56.17
2023-02-09T06:16:22.615Z,56.62
2023-02-09T06:18:50.577Z,56.46
2023-02-09T06:21:19.208Z,56.63
2023-02-09T06:23:47.338Z,56.53
2023-02-09T06:26:18.301Z,56.58
2023-02-09T06:28:46.868Z,56.50
2023-02-09T06:31:15.246Z,56.60
2023-02-09T06:33:43.537Z,56.26
2023-02-09T06:36:12.011Z,56.34
2023-02-09T06:38:40.294Z,56.04
2023-02-09T06:41:08.597Z,56.08
2023-02-09T06:43:38.021Z,55.57
2023-02-09T06:46:09.777Z,55.81
2023-02-09T06:48:38.329Z,55.87
2023-02-09T06:51:09.662Z,56.11
2023-02-09T06:53:38.119Z,56.11
2023-02-09T06:56:06.711Z,56.14
2023-02-09T06:58:34.992Z,55.92
2023-02-09T07:01:05.308Z,55.82
2023-02-09T07:03:34.407Z,56.02
2023-02-09T07:06:07.224Z,56.32
2023-02-09T07:08:35.683Z,56.18
2023-02-09T07:11:04.607Z,56.28
2023-02-09T07:13:33.188Z,56.38
2023-02-09T07:16:02.583Z,56.30
2023-02-09T07:18:32.301Z,56.47
2023-02-09T07:21:02.001Z,56.78
2023-02-09T07:23:30.829Z,56.65
2023-02-09T07:26:03.150Z,56.65
2023-02-09T07:28:31.401Z,56.73
2023-02-09T07:31:04.550Z,57.09
2023-02-09T07:33:34.659Z,57.00
2023-02-09T07:36:05.928Z,57.02
2023-02-09T07:38:34.946Z,56.97
2023-02-09T07:41:05.080Z,56.90
2023-02-09T07:43:33.826Z,56.83
2023-02-09T07:46:02.772Z,56.91
2023-02-09T07:48:31.458Z,56.99
2023-02-09T07:51:01.394Z,56.63
2023-02-09T07:53:30.366Z,56.87
2023-02-09T07:55:58.879Z,56.42
2023-02-09T07:58:26.932Z,56.24
2023-02-09T08:00:54.998Z,56.42
2023-02-09T08:03:25.895Z,56.95
2023-02-09T08:05:59.835Z,56.56
2023-02-09T08:08:29.301Z,56.76
2023-02-09T08:10:59.389Z,56.69
2023-02-09T08:13:31.426Z,56.70
2023-02-09T08:16:04.829Z,56.53
2023-02-09T08:18:37.396Z,56.40
2023-02-09T08:21:07.795Z,56.40
2023-02-09T08:23:39.526Z,56.71
2023-02-09T08:26:11.525Z,56.87
2023-02-09T08:28:44.964Z,56.68
2023-02-09T08:31:13.781Z,56.60
2023-02-09T08:33:42.022Z,56.51
2023-02-09T08:36:10.530Z,56.66
2023-02-09T08:38:40.504Z,56.54
2023-02-09T08:41:10.834Z,56.45
2023-02-09T08:43:39.145Z,56.52
2023-02-09T08:46:09.653Z,56.63
2023-02-09T08:48:43.861Z,56.77
2023-02-09T08:51:14.006Z,56.51
2023-02-09T08:53:46.239Z,56.44
2023-02-09T08:56:14.285Z,56.48
2023-02-09T08:58:42.420Z,56.95
2023-02-09T09:01:10.526Z,56.35
2023-02-09T09:03:38.669Z,56.48
2023-02-09T09:06:08.431Z,56.03
2023-02-09T09:08:38.617Z,56.19
2023-02-09T09:11:12.968Z,56.03
2023-02-09T09:13:41.803Z,56.19
2023-02-09T09:16:15.691Z,56.08
2023-02-09T09:18:44.675Z,56.03
2023-02-09T09:21:13.199Z,56.32
2023-02-09T09:23:41.224Z,55.70
2023-02-09T09:26:10.705Z,55.80
2023-02-09T09:28:39.312Z,55.96
2023-02-09T09:31:11.607Z,55.65
2023-02-09T09:33:40.176Z,55.41
2023-02-09T09:36:09.207Z,55.73
2023-02-09T09:38:40.549Z,55.70
2023-02-09T09:41:26.839Z,55.29
2023-02-09T09:43:55.998Z,54.99
2023-02-09T09:46:32.080Z,54.84
2023-02-09T09:49:01.340Z,54.63
2023-02-09T09:51:38.154Z,54.59
2023-02-09T09:54:09.373Z,54.29
2023-02-09T09:56:41.167Z,54.53
2023-02-09T09:59:20.056Z,54.48
2023-02-09T10:01:50.384Z,54.28
2023-02-09T10:04:19.838Z,53.98
2023-02-09T10:06:53.694Z,54.18
2023-02-09T10:09:30.480Z,53.60
2023-02-09T10:12:13.361Z,53.50
2023-02-09T10:14:41.417Z,53.34
2023-02-09T10:17:09.715Z,53.54
2023-02-09T10:19:38.034Z,53.27
2023-02-09T10:22:12.144Z,53.22
2023-02-09T10:24:42.140Z,52.97
2023-02-09T10:27:16.323Z,52.77
2023-02-09T10:29:44.551Z,52.30
2023-02-09T10:32:17.997Z,52.32
2023-02-09T10:34:49.016Z,52.37
2023-02-09T10:37:23.698Z,52.25
2023-02-09T10:40:01.676Z,51.76
2023-02-09T10:42:34.037Z,51.56
2023-02-09T10:45:08.560Z,51.49
2023-02-09T10:47:36.618Z,50.85
2023-02-09T10:50:17.242Z,50.51
2023-02-09T10:52:56.601Z,50.40
2023-02-09T10:55:29.214Z,50.40
2023-02-09T10:58:23.230Z,50.18
2023-02-09T11:00:59.238Z,50.13
2023-02-09T11:03:27.667Z,50.20
2023-02-09T11:06:01.455Z,49.97
2023-02-09T11:08:45.481Z,50.15
2023-02-09T11:11:33.140Z,49.96
2023-02-09T11:14:03.374Z,49.90
2023-02-09T11:16:58.105Z,49.72
2023-02-09T11:19:51.545Z,49.32
2023-02-09T11:22:29.671Z,48.97
2023-02-09T11:25:07.908Z,48.69
2023-02-09T11:27:55.913Z,48.70
2023-02-09T11:30:36.839Z,48.32
2023-02-09T11:33:12.153Z,48.57
2023-02-09T11:35:49.442Z,48.38
2023-02-09T11:38:21.914Z,48.41
2023-02-09T11:40:55.101Z,48.29
2023-02-09T11:43:28.921Z,47.95
2023-02-09T11:46:02.047Z,48.11
2023-02-09T11:48:33.005Z,48.29
2023-02-09T11:51:06.579Z,47.75
2023-02-09T11:53:42.584Z,47.21
2023-02-09T11:56:13.658Z,47.19
2023-02-09T11:58:51.180Z,46.90
2023-02-09T12:01:31.237Z,47.02
2023-02-09T12:04:06.905Z,46.57
2023-02-09T12:06:45.361Z,46.79
2023-02-09T12:09:25.911Z,46.74
2023-02-09T12:12:02.966Z,46.69
2023-02-09T12:14:49.133Z,45.63
2023-02-09T12:17:21.841Z,45.34
2023-02-09T12:19:58.653Z,45.11
2023-02-09T12:22:53.677Z,45.03
2023-02-09T12:25:33.157Z,44.76
2023-02-09T12:28:42.736Z,44.59
2023-02-09T12:31:15.173Z,45.17
2023-02-09T12:34:21.612Z,45.47
2023-02-09T12:37:19.174Z,45.66
2023-02-09T12:40:23.967Z,46.02
2023-02-09T12:43:27.368Z,45.59
2023-02-09T12:46:20.162Z,45.19
2023-02-09T12:49:04.614Z,45.10
2023-02-09T12:51:48.718Z,44.67
2023-02-09T12:54:41.341Z,45.23
2023-02-09T12:57:48.646Z,45.46
2023-02-09T13:00:58.279Z,45.53
2023-02-09T13:03:27.760Z,45.53
2023-02-09T13:06:00.878Z,45.50
2023-02-09T13:08:35.246Z,45.42
2023-02-09T13:11:19.219Z,44.32
2023-02-09T13:13:53.697Z,44.22
2023-02-09T13:16:51.703Z,43.51
2023-02-09T13:19:47.036Z,43.06
2023-02-09T13:22:28.676Z,42.63
2023-02-09T13:25:00.545Z,42.10
2023-02-09T13:27:33.871Z,42.10
2023-02-09T13:30:01.895Z,40.94
2023-02-09T13:32:43.177Z,40.57
2023-02-09T13:35:20.337Z,40.48
2023-02-09T13:37:50.756Z,40.81
2023-02-09T13:40:23.958Z,41.40
2023-02-09T13:42:56.756Z,41.75
2023-02-09T13:45:26.852Z,41.91
2023-02-09T13:47:55.556Z,41.97
2023-02-09T13:50:26.046Z,41.46
2023-02-09T13:52:54.117Z,41.54
2023-02-09T13:55:24.493Z,41.28
2023-02-09T13:57:59.531Z,40.91
2023-02-09T14:00:30.738Z,40.25
2023-02-09T14:03:01.567Z,40.26
2023-02-09T14:05:39.428Z,39.54
2023-02-09T14:08:08.075Z,39.40
2023-02-09T14:10:36.682Z,38.76
2023-02-09T14:13:13.176Z,39.21
2023-02-09T14:16:01.591Z,38.95
2023-02-09T14:18:32.866Z,38.68
2023-02-09T14:21:15.070Z,38.36
2023-02-09T14:23:44.857Z,38.54
2023-02-09T14:26:23.746Z,38.40
2023-02-09T14:28:55.831Z,38.62
2023-02-09T14:31:26.643Z,38.31
2023-02-09T14:33:57.013Z,38.39
2023-02-09T14:36:30.517Z,38.99
2023-02-09T14:39:11.233Z,38.35
2023-02-09T14:41:40.146Z,37.96
2023-02-09T14:44:22.136Z,38.00
2023-02-09T14:46:52.393Z,38.54
2023-02-09T14:49:22.537Z,39.52
2023-02-09T14:51:52.841Z,38.14
2023-02-09T14:54:26.739Z,37.27
2023-02-09T14:56:58.481Z,37.36
2023-02-09T14:59:28.867Z,36.04
2023-02-09T15:01:57.004Z,36.85
2023-02-09T15:04:25.098Z,37.19
2023-02-09T15:07:02.570Z,35.97
2023-02-09T15:09:38.091Z,36.33
2023-02-09T15:12:07.465Z,36.90
2023-02-09T15:14:42.694Z,33.88
2023-02-09T15:17:16.034Z,34.33
2023-02-09T15:19:44.556Z,31.83
2023-02-09T15:22:15.352Z,30.92
2023-02-09T15:24:44.124Z,31.29
2023-02-09T15:27:18.565Z,31.53
2023-02-09T15:29:48.107Z,32.39
2023-02-09T15:32:18.417Z,32.43
2023-02-09T15:34:46.773Z,32.96
2023-02-09T15:37:20.998Z,33.44
2023-02-09T15:39:50.916Z,33.71
2023-02-09T15:42:37.875Z,34.68
2023-02-09T15:45:36.127Z,35.31
2023-02-09T15:48:04.916Z,35.98
2023-02-09T15:50:34.379Z,36.39
2023-02-09T15:53:05.509Z,36.21
2023-02-09T15:55:34.852Z,36.40
2023-02-09T15:58:05.290Z,36.51
2023-02-09T16:00:34.674Z,37.16
2023-02-09T16:03:16.007Z,38.03
2023-02-09T16:05:44.547Z,37.67
2023-02-09T16:08:19.435Z,37.83
2023-02-09T16:10:48.646Z,38.09
2023-02-09T16:13:18.226Z,37.31
2023-02-09T16:15:49.493Z,37.18
2023-02-09T16:18:17.723Z,37.16
2023-02-09T16:20:48.772Z,36.93
2023-02-09T16:23:21.234Z,36.82
2023-02-09T16:25:50.767Z,36.74
2023-02-09T16:28:19.016Z,37.11
2023-02-09T16:30:54.458Z,37.44
2023-02-09T16:33:23.867Z,36.97
2023-02-09T16:35:55.001Z,36.64
2023-02-09T16:38:24.129Z,37.10
2023-02-09T16:40:52.717Z,37.06
2023-02-09T16:43:22.028Z,37.23
2023-02-09T16:46:03.191Z,37.18
2023-02-09T16:48:34.645Z,37.21
2023-02-09T16:51:03.394Z,37.09
2023-02-09T16:53:34.167Z,37.43
2023-02-09T16:56:04.835Z,37.32
2023-02-09T16:58:33.150Z,37.42
2023-02-09T17:01:02.816Z,37.46
2023-02-09T17:03:34.830Z,37.83
2023-02-09T17:06:03.493Z,37.93
2023-02-09T17:08:33.107Z,38.07
2023-02-09T17:11:02.631Z,38.24
2023-02-09T17:13:30.984Z,38.24
2023-02-09T17:16:03.238Z,38.57
2023-02-09T17:18:35.181Z,38.80
2023-02-09T17:21:06.985Z,39.05
2023-02-09T17:23:35.526Z,38.80
2023-02-09T17:26:03.617Z,39.17
2023-02-09T17:28:32.435Z,39.15
2023-02-09T17:31:03.668Z,39.63
2023-02-09T17:33:34.095Z,39.68
2023-02-09T17:36:25.194Z,39.45
2023-02-09T17:38:51.973Z,39.82
2023-02-09T17:41:22.256Z,39.94
2023-02-09T17:43:52.677Z,39.95
2023-02-09T17:46:22.353Z,40.33
2023-02-09T17:48:50.373Z,40.35
2023-02-09T17:51:21.869Z,40.26
2023-02-09T17:53:50.239Z,40.37
2023-02-09T17:56:19.441Z,40.39
2023-02-09T17:58:48.078Z,40.64
2023-02-09T18:01:27.161Z,40.45
2023-02-09T18:03:55.825Z,40.62
2023-02-09T18:06:30.019Z,40.35
2023-02-09T18:08:57.979Z,40.69
2023-02-09T18:11:41.161Z,41.01
2023-02-09T18:14:11.396Z,41.33
2023-02-09T18:16:41.399Z,41.34
2023-02-09T18:19:09.729Z,41.33
2023-02-09T18:21:38.040Z,41.23
2023-02-09T18:24:07.178Z,41.32
2023-02-09T18:29:32.853Z,41.72
2023-02-09T18:32:04.049Z,41.91
2023-02-09T18:34:32.390Z,42.35
2023-02-09T18:37:00.542Z,42.44
2023-02-09T18:39:28.552Z,42.61
2023-02-09T18:41:57.859Z,42.70
2023-02-09T18:44:29.417Z,42.95
2023-02-09T18:46:58.397Z,43.16
2023-02-09T18:49:27.838Z,43.20
2023-02-09T18:51:57.072Z,43.58
2023-02-09T18:54:26.158Z,43.58
2023-02-09T18:56:56.119Z,43.77
2023-02-09T18:59:24.388Z,43.84
2023-02-09T19:01:52.480Z,44.16
2023-02-09T19:04:20.540Z,44.26
2023-02-09T19:06:52.498Z,44.62
2023-02-09T19:09:21.190Z,44.52
2023-02-09T19:14:56.385Z,44.97
2023-02-09T19:17:25.114Z,44.92
2023-02-09T19:19:53.406Z,44.90
2023-02-09T19:22:25.075Z,45.25
2023-02-09T19:24:56.256Z,45.41
2023-02-09T19:27:26.194Z,45.25
2023-02-09T19:29:56.294Z,45.32
2023-02-09T19:32:36.562Z,45.39
2023-02-09T19:35:18.566Z,45.17
2023-02-09T19:37:51.613Z,45.16
2023-02-09T19:40:27.754Z,45.36
2023-02-09T19:42:56.190Z,45.29
2023-02-09T19:45:24.316Z,45.63
2023-02-09T19:47:52.617Z,45.88
2023-02-09T19:50:21.061Z,45.63
2023-02-09T19:52:50.575Z,45.63
2023-02-09T19:55:18.832Z,45.71
2023-02-09T19:57:46.966Z,45.72
2023-02-09T20:00:18.202Z,45.99
2023-02-09T20:02:46.556Z,45.94
2023-02-09T20:05:14.613Z,46.08
2023-02-09T20:07:42.802Z,45.92
2023-02-09T20:10:14.039Z,45.91
2023-02-09T20:12:42.066Z,45.82
2023-02-09T20:15:10.130Z,45.88
2023-02-09T20:17:38.166Z,45.94
2023-02-09T20:20:06.922Z,46.02
2023-02-09T20:22:36.813Z,46.21
2023-02-09T20:25:05.455Z,46.29
2023-02-09T20:27:35.637Z,46.30
2023-02-09T20:30:04.134Z,46.17
2023-02-09T20:32:32.315Z,46.23
2023-02-09T20:35:00.810Z,46.16
2023-02-09T20:37:29.648Z,46.30
2023-02-09T20:39:57.881Z,46.44
2023-02-09T20:42:43.409Z,45.96
2023-02-09T20:45:32.304Z,46.72
2023-02-09T20:48:00.300Z,46.46
2023-02-09T20:50:28.600Z,46.49
2023-02-09T20:52:56.777Z,46.54
2023-02-09T20:55:24.888Z,46.81
2023-02-09T20:57:53.260Z,46.70
2023-02-09T21:00:24.564Z,46.87
2023-02-09T21:02:53.332Z,46.53
2023-02-09T21:05:21.359Z,46.84
2023-02-09T21:07:52.395Z,46.73
2023-02-09T21:10:20.548Z,46.77
2023-02-09T21:12:48.986Z,46.86
2023-02-09T21:15:19.755Z,46.87
2023-02-09T21:17:51.743Z,47.18
2023-02-09T21:20:20.056Z,47.01
2023-02-09T21:22:50.466Z,47.12
2023-02-09T21:25:20.688Z,47.15
2023-02-09T21:27:50.315Z,47.64
2023-02-09T21:30:20.782Z,47.21
2023-02-09T21:32:50.943Z,47.25
2023-02-09T21:35:19.491Z,47.06
2023-02-09T21:37:48.261Z,47.27
2023-02-09T21:40:16.983Z,47.11
2023-02-09T21:42:45.743Z,47.08
2023-02-09T21:45:14.508Z,47.32
2023-02-09T21:47:43.427Z,47.47
2023-02-09T21:50:14.789Z,47.29
2023-02-09T21:52:43.438Z,46.88
2023-02-09T21:55:13.567Z,47.56
2023-02-09T21:57:43.591Z,47.34
2023-02-09T22:00:15.554Z,47.74
2023-02-09T22:02:43.764Z,47.47
2023-02-09T22:05:13.563Z,47.54
2023-02-09T22:07:41.613Z,47.75
2023-02-09T22:10:10.034Z,47.92
2023-02-09T22:12:38.821Z,47.59
2023-02-09T22:15:07.643Z,47.49
2023-02-09T22:17:37.842Z,47.92
2023-02-09T22:20:06.604Z,47.78
2023-02-09T22:22:36.590Z,47.44
2023-02-09T22:25:04.687Z,47.77
2023-02-09T22:27:32.776Z,48.01
2023-02-09T22:30:00.725Z,48.09
2023-02-09T22:32:31.945Z,47.90
2023-02-09T22:34:59.996Z,48.06
2023-02-09T22:37:28.028Z,48.25
2023-02-09T22:39:57.583Z,48.42
2023-02-09T22:42:25.833Z,47.98
2023-02-09T22:44:53.882Z,48.13
2023-02-09T22:47:21.863Z,48.38
2023-02-09T22:49:50.057Z,48.11
2023-02-09T22:52:18.199Z,48.41
2023-02-09T22:54:46.301Z,48.41
2023-02-09T22:57:16.000Z,48.54
2023-02-09T22:59:44.267Z,48.60
2023-02-09T23:02:12.762Z,48.34
2023-02-09T23:04:40.838Z,48.53
2023-02-09T23:07:08.802Z,48.71
2023-02-09T23:09:38.266Z,48.62
2023-02-09T23:12:07.049Z,48.61
2023-02-09T23:14:36.578Z,48.39
2023-02-09T23:17:04.631Z,48.46
2023-02-09T23:19:32.760Z,48.68
2023-02-09T23:22:01.054Z,48.39
2023-02-09T23:24:29.373Z,48.52
2023-02-09T23:26:57.864Z,48.61
2023-02-09T23:29:25.986Z,48.63
2023-02-09T23:31:55.454Z,49.00
2023-02-09T23:34:24.463Z,48.92
2023-02-09T23:36:52.697Z,48.60
2023-02-09T23:39:22.694Z,49.16
2023-02-09T23:41:50.938Z,49.04
2023-02-09T23:44:19.581Z,48.83
2023-02-09T23:46:47.700Z,48.75
2023-02-09T23:49:17.121Z,49.23
2023-02-09T23:51:45.596Z,48.98
2023-02-09T23:54:13.930Z,48.73
2023-02-09T23:56:41.957Z,48.84
2023-02-09T23:59:12.658Z,48.74
